createdAt,value
2023-05-18T00:02:00.461Z,91.64
2023-05-18T00:04:28.185Z,89.84
2023-05-18T00:06:57.021Z,90.67
2023-05-18T00:09:26.379Z,88.15
2023-05-18T00:11:53.314Z,89.60
2023-05-18T00:14:20.354Z,88.78
2023-05-18T00:16:47.781Z,87.53
2023-05-18T00:19:15.062Z,86.96
2023-05-18T00:21:42.588Z,86.77
2023-05-18T00:24:12.908Z,86.06
2023-05-18T00:26:40.098Z,86.62
2023-05-18T00:29:06.912Z,86.77
2023-05-18T00:31:36.770Z,84.99
2023-05-18T00:34:04.095Z,86.24
2023-05-18T00:36:31.375Z,84.82
2023-05-18T00:38:58.636Z,85.89
2023-05-18T00:41:26.480Z,86.15
2023-05-18T00:43:53.833Z,85.91
2023-05-18T00:46:21.353Z,85.77
2023-05-18T00:48:48.580Z,85.40
2023-05-18T00:51:15.812Z,84.26
2023-05-18T00:53:44.210Z,85.11
2023-05-18T00:56:11.315Z,84.55
2023-05-18T00:58:42.030Z,84.78
2023-05-18T01:01:12.167Z,85.32
2023-05-18T01:03:39.297Z,85.24
2023-05-18T01:06:06.758Z,85.33
2023-05-18T01:08:34.181Z,86.60
2023-05-18T01:11:03.884Z,86.92
2023-05-18T01:13:39.970Z,85.75
2023-05-18T01:16:09.824Z,85.93
2023-05-18T01:18:43.525Z,85.53
2023-05-18T01:21:29.048Z,87.00
2023-05-18T01:24:16.093Z,86.96
2023-05-18T01:26:45.318Z,86.51
2023-05-18T01:29:13.789Z,86.25
2023-05-18T01:31:40.605Z,86.56
2023-05-18T01:34:07.286Z,86.19
2023-05-18T01:36:33.872Z,86.39
2023-05-18T01:39:01.922Z,86.66
2023-05-18T01:41:29.668Z,86.67
2023-05-18T01:43:59.242Z,85.85
2023-05-18T01:46:26.113Z,86.81
2023-05-18T01:48:56.320Z,85.90
2023-05-18T01:51:26.436Z,86.45
2023-05-18T01:53:55.858Z,86.06
2023-05-18T01:56:23.248Z,85.68
2023-05-18T01:58:50.445Z,85.66
2023-05-18T02:01:20.173Z,85.01
2023-05-18T02:03:46.970Z,84.52
2023-05-18T02:06:13.782Z,83.87
2023-05-18T02:08:40.495Z,84.37
2023-05-18T02:11:07.145Z,84.67
2023-05-18T02:13:33.752Z,84.38
2023-05-18T02:16:00.374Z,84.37
2023-05-18T02:18:27.101Z,84.23
2023-05-18T02:21:00.201Z,84.22
2023-05-18T02:23:27.416Z,83.84
2023-05-18T02:25:57.050Z,84.43
2023-05-18T02:28:25.455Z,83.83
2023-05-18T02:30:52.027Z,83.61
2023-05-18T02:33:19.705Z,83.39
2023-05-18T02:35:46.720Z,82.88
2023-05-18T02:38:13.462Z,83.07
2023-05-18T02:40:40.065Z,81.68
2023-05-18T02:43:06.614Z,82.63
2023-05-18T02:45:33.822Z,82.70
2023-05-18T02:48:00.928Z,81.83
2023-05-18T02:50:27.606Z,82.32
2023-05-18T02:52:55.930Z,82.00
2023-05-18T02:55:22.846Z,82.44
2023-05-18T02:58:05.602Z,81.54
2023-05-18T03:00:59.983Z,81.68
2023-05-18T03:03:33.259Z,82.39
2023-05-18T03:06:00.636Z,82.34
2023-05-18T03:08:28.749Z,82.34
2023-05-18T03:10:55.608Z,82.33
2023-05-18T03:13:22.648Z,82.22
2023-05-18T03:15:50.970Z,82.43
2023-05-18T03:18:19.211Z,82.26
2023-05-18T03:20:45.881Z,81.83
2023-05-18T03:23:12.582Z,81.75
2023-05-18T03:25:39.333Z,81.94
2023-05-18T03:28:06.616Z,81.27
2023-05-18T03:30:34.139Z,80.89
2023-05-18T03:33:01.781Z,81.59
2023-05-18T03:35:30.030Z,81.31
2023-05-18T03:37:57.031Z,81.78
2023-05-18T03:40:24.847Z,81.23
2023-05-18T03:42:52.512Z,81.25
2023-05-18T03:45:19.232Z,81.71
2023-05-18T03:47:45.846Z,81.01
2023-05-18T03:50:12.779Z,81.90
2023-05-18T03:52:39.699Z,81.99
2023-05-18T03:55:07.471Z,81.71
2023-05-18T03:57:34.046Z,81.85
2023-05-18T04:00:06.271Z,81.92
2023-05-18T04:02:33.205Z,81.67
2023-05-18T04:05:01.121Z,80.40
2023-05-18T04:07:27.789Z,81.16
2023-05-18T04:09:55.734Z,81.63
2023-05-18T04:12:22.425Z,81.09
2023-05-18T04:14:54.328Z,80.96
2023-05-18T04:17:22.313Z,80.17
2023-05-18T04:19:49.848Z,79.69
2023-05-18T04:22:16.799Z,81.02
2023-05-18T04:24:47.401Z,80.13
2023-05-18T04:27:15.207Z,80.06
2023-05-18T04:29:44.141Z,79.71
2023-05-18T04:32:10.993Z,79.97
2023-05-18T04:34:38.098Z,79.46
2023-05-18T04:37:05.865Z,79.02
2023-05-18T04:39:34.606Z,79.26
2023-05-18T04:42:06.543Z,79.17
2023-05-18T04:44:38.562Z,79.37
2023-05-18T04:47:08.405Z,79.21
2023-05-18T04:49:35.905Z,78.27
2023-05-18T04:52:02.452Z,78.54
2023-05-18T04:54:32.449Z,78.20
2023-05-18T04:56:59.511Z,78.14
2023-05-18T04:59:29.086Z,77.85
2023-05-18T05:01:56.055Z,78.28
2023-05-18T05:04:24.156Z,77.24
2023-05-18T05:06:50.950Z,76.77
2023-05-18T05:09:18.041Z,77.05
2023-05-18T05:11:45.714Z,76.54
2023-05-18T05:14:13.390Z,76.69
2023-05-18T05:16:40.845Z,77.01
2023-05-18T05:19:07.535Z,76.83
2023-05-18T05:21:34.269Z,76.89
2023-05-18T05:24:05.050Z,76.80
2023-05-18T05:26:32.386Z,76.24
2023-05-18T05:28:59.120Z,76.23
2023-05-18T05:31:25.973Z,75.89
2023-05-18T05:33:52.656Z,75.50
2023-05-18T05:36:19.471Z,75.93
2023-05-18T05:38:46.202Z,75.62
2023-05-18T05:41:12.866Z,74.22
2023-05-18T05:43:40.313Z,74.42
2023-05-18T05:46:06.906Z,74.44
2023-05-18T05:48:33.547Z,74.83
2023-05-18T05:51:00.665Z,74.19
2023-05-18T05:53:29.738Z,74.05
2023-05-18T05:55:56.808Z,74.47
2023-05-18T05:58:23.417Z,73.25
2023-05-18T06:00:54.566Z,73.94
2023-05-18T06:03:21.499Z,74.81
2023-05-18T06:05:49.380Z,73.94
2023-05-18T06:08:18.284Z,72.88
2023-05-18T06:10:46.340Z,73.20
2023-05-18T06:13:13.390Z,72.37
2023-05-18T06:15:47.903Z,72.86
2023-05-18T06:18:14.778Z,72.22
2023-05-18T06:20:41.383Z,72.51
2023-05-18T06:23:08.239Z,73.04
2023-05-18T06:25:57.678Z,72.88
2023-05-18T06:28:42.830Z,72.70
2023-05-18T06:31:24.801Z,72.61
2023-05-18T06:33:59.428Z,72.96
2023-05-18T06:36:26.049Z,72.59
2023-05-18T06:38:52.713Z,71.99
2023-05-18T06:41:19.373Z,71.99
2023-05-18T06:43:46.230Z,72.03
2023-05-18T06:46:26.636Z,72.09
2023-05-18T06:48:57.384Z,71.95
2023-05-18T06:51:24.515Z,71.74
2023-05-18T06:53:51.653Z,72.43
2023-05-18T06:56:18.933Z,73.02
2023-05-18T06:58:46.993Z,71.71
2023-05-18T07:01:14.345Z,72.25
2023-05-18T07:03:41.133Z,72.40
2023-05-18T07:06:07.878Z,71.88
2023-05-18T07:08:37.003Z,71.59
2023-05-18T07:11:04.095Z,71.88
2023-05-18T07:13:31.013Z,71.30
2023-05-18T07:15:58.009Z,71.38
2023-05-18T07:18:24.886Z,71.79
2023-05-18T07:20:51.568Z,71.32
2023-05-18T07:23:18.220Z,71.72
2023-05-18T07:25:44.857Z,72.34
2023-05-18T07:28:11.413Z,71.22
2023-05-18T07:30:38.013Z,71.19
2023-05-18T07:33:04.633Z,71.26
2023-05-18T07:35:31.636Z,72.17
2023-05-18T07:37:58.390Z,71.77
2023-05-18T07:40:24.920Z,72.12
2023-05-18T07:42:51.546Z,71.80
2023-05-18T07:45:18.144Z,71.56
2023-05-18T07:47:44.754Z,72.32
2023-05-18T07:50:11.583Z,72.54
2023-05-18T07:52:38.142Z,71.63
2023-05-18T07:55:05.093Z,71.44
2023-05-18T07:57:31.770Z,71.78
2023-05-18T07:59:58.338Z,72.21
2023-05-18T08:02:25.096Z,72.88
2023-05-18T08:04:52.030Z,71.55
2023-05-18T08:07:18.732Z,72.38
2023-05-18T08:09:45.367Z,72.71
2023-05-18T08:12:12.656Z,72.17
2023-05-18T08:14:39.423Z,71.26
2023-05-18T08:17:06.492Z,71.64
2023-05-18T08:19:33.173Z,71.69
2023-05-18T08:21:59.712Z,70.69
2023-05-18T08:24:26.305Z,70.53
2023-05-18T08:26:53.115Z,70.58
2023-05-18T08:29:19.699Z,70.70
2023-05-18T08:31:49.221Z,71.04
2023-05-18T08:34:16.364Z,69.71
2023-05-18T08:36:45.704Z,70.68
2023-05-18T08:39:12.679Z,71.01
2023-05-18T08:41:42.741Z,70.62
2023-05-18T08:44:16.307Z,71.04
2023-05-18T08:46:48.303Z,69.35
2023-05-18T08:49:16.971Z,69.32
2023-05-18T08:51:45.225Z,69.79
2023-05-18T08:54:12.190Z,69.99
2023-05-18T08:56:38.863Z,70.53
2023-05-18T08:59:08.386Z,70.44
2023-05-18T09:01:35.901Z,70.22
2023-05-18T09:04:03.186Z,70.28
2023-05-18T09:06:30.201Z,69.53
2023-05-18T09:09:04.326Z,70.07
2023-05-18T09:11:32.513Z,69.79
2023-05-18T09:13:59.650Z,69.85
2023-05-18T09:16:26.599Z,70.39
2023-05-18T09:18:53.655Z,69.47
2023-05-18T09:21:20.599Z,70.10
2023-05-18T09:23:47.522Z,69.26
2023-05-18T09:26:14.304Z,68.77
2023-05-18T09:28:42.211Z,70.10
2023-05-18T09:31:12.663Z,69.06
2023-05-18T09:33:40.070Z,69.03
2023-05-18T09:36:07.793Z,70.57
2023-05-18T09:38:38.285Z,70.83
2023-05-18T09:41:09.321Z,70.93
2023-05-18T09:43:36.126Z,70.12
2023-05-18T09:46:06.305Z,69.87
2023-05-18T09:48:35.017Z,70.54
2023-05-18T09:51:01.612Z,70.53
2023-05-18T09:53:28.225Z,71.54
2023-05-18T09:55:54.767Z,71.76
2023-05-18T09:58:21.426Z,71.18
2023-05-18T10:00:54.037Z,71.94
2023-05-18T10:03:21.884Z,71.53
2023-05-18T10:05:48.630Z,70.29
2023-05-18T10:08:15.559Z,71.88
2023-05-18T10:10:44.715Z,71.18
2023-05-18T10:13:17.758Z,71.91
2023-05-18T10:16:04.060Z,72.83
2023-05-18T10:18:31.641Z,72.93
2023-05-18T10:21:00.207Z,72.46
2023-05-18T10:23:28.155Z,71.68
2023-05-18T10:25:54.840Z,73.17
2023-05-18T10:28:32.974Z,72.33
2023-05-18T10:31:00.340Z,73.07
2023-05-18T10:33:29.938Z,72.17
2023-05-18T10:35:57.427Z,72.78
2023-05-18T10:38:25.712Z,71.64
2023-05-18T10:40:53.438Z,71.66
2023-05-18T10:43:23.372Z,72.15
2023-05-18T10:45:55.008Z,71.44
2023-05-18T10:48:22.320Z,71.21
2023-05-18T10:50:50.529Z,70.71
2023-05-18T10:53:18.404Z,72.06
2023-05-18T10:55:45.093Z,71.02
2023-05-18T10:58:14.242Z,71.92
2023-05-18T11:00:42.880Z,71.26
2023-05-18T11:03:13.906Z,72.06
2023-05-18T11:05:41.181Z,71.70
2023-05-18T11:08:08.068Z,71.43
2023-05-18T11:10:36.156Z,71.96
2023-05-18T11:13:03.049Z,69.82
2023-05-18T11:15:49.951Z,70.40
2023-05-18T11:18:17.176Z,70.12
2023-05-18T11:20:45.559Z,69.52
2023-05-18T11:23:16.306Z,68.95
2023-05-18T11:25:43.612Z,68.23
2023-05-18T11:28:12.023Z,69.13
2023-05-18T11:30:40.530Z,68.58
2023-05-18T11:33:19.092Z,70.01
2023-05-18T11:36:04.588Z,69.71
2023-05-18T11:38:46.336Z,70.31
2023-05-18T11:41:31.951Z,70.14
2023-05-18T11:44:18.920Z,69.90
2023-05-18T11:46:51.267Z,69.58
2023-05-18T11:49:18.423Z,69.85
2023-05-18T11:52:04.065Z,68.73
2023-05-18T11:54:34.486Z,69.11
2023-05-18T11:57:01.395Z,68.78
2023-05-18T11:59:31.832Z,70.42
2023-05-18T12:02:00.491Z,69.11
2023-05-18T12:04:27.488Z,69.47
2023-05-18T12:06:55.043Z,69.64
2023-05-18T12:09:21.760Z,68.60
2023-05-18T12:11:48.331Z,70.35
2023-05-18T12:14:15.091Z,70.24
2023-05-18T12:16:42.478Z,69.21
2023-05-18T12:19:09.371Z,70.36
2023-05-18T12:21:36.939Z,69.11
2023-05-18T12:24:03.873Z,68.02
2023-05-18T12:26:31.972Z,66.94
2023-05-18T12:29:02.072Z,66.92
2023-05-18T12:31:30.042Z,67.57
2023-05-18T12:33:59.059Z,67.61
2023-05-18T12:36:27.362Z,66.55
2023-05-18T12:38:54.037Z,66.81
2023-05-18T12:41:27.227Z,67.11
2023-05-18T12:43:55.015Z,65.39
2023-05-18T12:46:23.545Z,65.73
2023-05-18T12:48:57.657Z,65.46
2023-05-18T12:51:24.784Z,65.56
2023-05-18T12:53:51.552Z,65.25
2023-05-18T12:56:18.490Z,65.02
2023-05-18T12:59:08.226Z,64.49
2023-05-18T13:01:41.976Z,64.81
2023-05-18T13:04:11.089Z,65.09
2023-05-18T13:06:38.557Z,64.75
2023-05-18T13:09:10.501Z,63.59
2023-05-18T13:11:39.054Z,65.66
2023-05-18T13:14:06.643Z,65.37
2023-05-18T13:16:34.123Z,65.65
2023-05-18T13:19:02.088Z,65.20
2023-05-18T13:21:28.976Z,64.78
2023-05-18T13:23:55.739Z,65.92
2023-05-18T13:26:22.966Z,64.77
2023-05-18T13:28:50.544Z,65.10
2023-05-18T13:31:17.188Z,65.01
2023-05-18T13:33:43.819Z,65.14
2023-05-18T13:36:10.645Z,64.88
2023-05-18T13:38:37.548Z,64.38
2023-05-18T13:41:04.874Z,65.70
2023-05-18T13:43:34.290Z,65.68
2023-05-18T13:46:01.176Z,66.70
2023-05-18T13:48:29.086Z,64.17
2023-05-18T13:50:56.545Z,64.30
2023-05-18T13:53:23.676Z,63.55
2023-05-18T13:55:50.478Z,65.04
2023-05-18T13:58:17.352Z,64.45
2023-05-18T14:00:43.966Z,64.47
2023-05-18T14:03:10.800Z,63.16
2023-05-18T14:05:37.446Z,63.27
2023-05-18T14:08:04.153Z,63.23
2023-05-18T14:10:31.062Z,62.06
2023-05-18T14:12:57.959Z,62.74
2023-05-18T14:15:24.851Z,61.95
2023-05-18T14:17:51.589Z,60.97
2023-05-18T14:20:19.728Z,63.27
2023-05-18T14:22:46.494Z,62.16
2023-05-18T14:25:13.132Z,61.78
2023-05-18T14:27:39.728Z,60.47
2023-05-18T14:30:06.738Z,60.63
2023-05-18T14:32:33.418Z,59.42
2023-05-18T14:35:00.119Z,60.54
2023-05-18T14:37:26.810Z,61.38
2023-05-18T14:39:53.411Z,61.41
2023-05-18T14:42:20.060Z,60.65
2023-05-18T14:44:47.075Z,60.88
2023-05-18T14:47:13.816Z,59.97
2023-05-18T14:49:40.497Z,59.49
2023-05-18T14:52:07.058Z,59.84
2023-05-18T14:54:33.682Z,61.23
2023-05-18T14:57:01.299Z,59.52
2023-05-18T14:59:28.065Z,59.94
2023-05-18T15:01:54.621Z,59.89
2023-05-18T15:04:22.178Z,59.70
2023-05-18T15:06:49.523Z,58.91
2023-05-18T15:09:16.190Z,59.99
2023-05-18T15:11:42.911Z,60.17
2023-05-18T15:14:09.490Z,60.32
2023-05-18T15:16:36.238Z,61.55
2023-05-18T15:19:04.464Z,60.85
2023-05-18T15:21:31.210Z,60.36
2023-05-18T15:23:57.843Z,59.42
2023-05-18T15:26:24.765Z,59.15
2023-05-18T15:28:51.341Z,59.33
2023-05-18T15:31:18.027Z,59.47
2023-05-18T15:33:44.633Z,59.58
2023-05-18T15:36:11.248Z,59.07
2023-05-18T15:38:37.888Z,59.70
2023-05-18T15:41:04.589Z,60.33
2023-05-18T15:43:31.327Z,60.11
2023-05-18T15:45:58.788Z,60.97
2023-05-18T15:48:25.530Z,62.42
2023-05-18T15:50:52.179Z,62.24
2023-05-18T15:53:18.903Z,61.29
2023-05-18T15:55:45.709Z,60.84
2023-05-18T15:58:13.522Z,61.71
2023-05-18T16:00:40.168Z,61.00
2023-05-18T16:03:06.761Z,61.79
2023-05-18T16:05:33.550Z,60.50
2023-05-18T16:08:00.154Z,62.21
2023-05-18T16:10:26.792Z,62.19
2023-05-18T16:12:53.363Z,60.92
2023-05-18T16:15:24.268Z,60.39
2023-05-18T16:17:51.077Z,60.50
2023-05-18T16:20:18.635Z,60.51
2023-05-18T16:22:46.904Z,60.71
2023-05-18T16:25:13.581Z,59.39
2023-05-18T16:27:40.270Z,60.07
2023-05-18T16:30:07.265Z,60.68
2023-05-18T16:32:34.004Z,61.98
2023-05-18T16:35:01.140Z,61.39
2023-05-18T16:37:28.064Z,61.10
2023-05-18T16:39:54.606Z,61.13
2023-05-18T16:42:22.945Z,61.39
2023-05-18T16:44:49.802Z,61.12
2023-05-18T16:47:16.508Z,61.54
2023-05-18T16:49:45.516Z,61.91
2023-05-18T16:52:12.295Z,61.33
2023-05-18T16:54:38.867Z,61.94
2023-05-18T16:57:06.299Z,62.10
2023-05-18T16:59:34.453Z,62.37
2023-05-18T17:02:01.787Z,62.72
2023-05-18T17:04:28.488Z,63.21
2023-05-18T17:06:56.106Z,63.56
2023-05-18T17:09:22.657Z,63.40
2023-05-18T17:11:49.284Z,62.83
2023-05-18T17:14:15.971Z,62.93
2023-05-18T17:16:42.617Z,63.76
2023-05-18T17:19:09.446Z,63.15
2023-05-18T17:21:36.424Z,62.68
2023-05-18T17:24:03.054Z,62.89
2023-05-18T17:26:30.791Z,63.18
2023-05-18T17:28:57.500Z,62.85
2023-05-18T17:31:24.351Z,63.14
2023-05-18T17:33:51.299Z,63.21
2023-05-18T17:36:18.306Z,62.98
2023-05-18T17:38:45.265Z,63.42
2023-05-18T17:41:12.012Z,63.77
2023-05-18T17:43:38.701Z,64.20
2023-05-18T17:46:05.396Z,64.67
2023-05-18T17:48:32.029Z,65.39
2023-05-18T17:50:58.843Z,65.90
2023-05-18T17:53:25.392Z,66.05
2023-05-18T17:55:52.564Z,65.64
2023-05-18T17:58:19.387Z,65.77
2023-05-18T18:00:45.941Z,66.14
2023-05-18T18:03:13.437Z,66.25
2023-05-18T18:05:40.306Z,65.96
2023-05-18T18:08:07.212Z,66.30
2023-05-18T18:10:34.761Z,65.66
2023-05-18T18:13:01.575Z,66.38
2023-05-18T18:15:28.992Z,67.04
2023-05-18T18:17:56.679Z,67.18
2023-05-18T18:20:23.392Z,67.35
2023-05-18T18:22:49.956Z,66.73
2023-05-18T18:25:16.609Z,67.52
2023-05-18T18:27:43.694Z,67.47
2023-05-18T18:30:10.766Z,67.31
2023-05-18T18:32:37.361Z,67.43
2023-05-18T18:35:04.415Z,67.30
2023-05-18T18:37:31.017Z,67.10
2023-05-18T18:39:57.627Z,66.88
2023-05-18T18:42:24.248Z,67.18
2023-05-18T18:44:53.004Z,67.28
2023-05-18T18:47:19.746Z,67.35
2023-05-18T18:49:46.267Z,67.68
2023-05-18T18:52:13.975Z,68.42
2023-05-18T18:54:41.064Z,68.60
2023-05-18T18:57:07.723Z,69.44
2023-05-18T18:59:35.507Z,69.18
2023-05-18T19:02:02.076Z,69.79
2023-05-18T19:04:28.846Z,71.01
2023-05-18T19:06:56.031Z,70.61
2023-05-18T19:09:22.935Z,70.96
2023-05-18T19:11:49.516Z,71.95
2023-05-18T19:14:16.460Z,73.14
2023-05-18T19:16:43.214Z,71.35
2023-05-18T19:19:10.021Z,71.45
2023-05-18T19:21:37.002Z,71.96
2023-05-18T19:24:04.350Z,72.27
2023-05-18T19:26:31.913Z,72.00
2023-05-18T19:28:59.187Z,72.05
2023-05-18T19:31:26.177Z,72.09
2023-05-18T19:33:53.003Z,72.73
2023-05-18T19:36:19.590Z,73.33
2023-05-18T19:38:46.814Z,73.63
2023-05-18T19:41:13.406Z,74.22
2023-05-18T19:43:40.020Z,74.40
2023-05-18T19:46:06.800Z,74.52
2023-05-18T19:48:33.775Z,74.57
2023-05-18T19:51:00.458Z,74.31
2023-05-18T19:53:27.045Z,74.56
2023-05-18T19:55:53.676Z,75.16
2023-05-18T19:58:20.316Z,75.70
2023-05-18T20:00:46.841Z,75.79
2023-05-18T20:03:14.561Z,75.34
2023-05-18T20:05:43.670Z,75.66
2023-05-18T20:08:12.597Z,76.00
2023-05-18T20:10:39.531Z,76.37
2023-05-18T20:13:06.130Z,76.48
2023-05-18T20:15:36.824Z,76.62
2023-05-18T20:18:06.468Z,76.37
2023-05-18T20:20:35.575Z,76.58
2023-05-18T20:23:02.389Z,77.45
2023-05-18T20:25:35.231Z,77.69
2023-05-18T20:28:03.374Z,78.27
2023-05-18T20:30:30.636Z,78.72
2023-05-18T20:33:00.348Z,78.97
2023-05-18T20:35:27.005Z,79.22
2023-05-18T20:37:56.002Z,79.27
2023-05-18T20:40:23.158Z,78.88
2023-05-18T20:42:54.240Z,79.81
2023-05-18T20:45:21.869Z,79.60
2023-05-18T20:47:52.504Z,79.72
2023-05-18T20:50:19.722Z,79.72
2023-05-18T20:52:46.918Z,79.87
2023-05-18T20:55:14.771Z,80.12
2023-05-18T20:57:41.781Z,80.37
2023-05-18T21:00:08.887Z,81.15
2023-05-18T21:02:36.889Z,80.77
2023-05-18T21:05:04.423Z,81.36
2023-05-18T21:07:32.084Z,81.54
2023-05-18T21:09:58.740Z,81.62
2023-05-18T21:12:25.536Z,82.05
2023-05-18T21:14:52.079Z,81.99
2023-05-18T21:17:19.075Z,81.81
2023-05-18T21:19:45.689Z,82.10
2023-05-18T21:22:12.229Z,82.47
2023-05-18T21:24:38.787Z,83.01
2023-05-18T21:27:05.517Z,82.99
2023-05-18T21:29:32.201Z,83.07
2023-05-18T21:31:59.031Z,83.27
2023-05-18T21:34:25.740Z,83.60
2023-05-18T21:36:52.336Z,82.40
2023-05-18T21:39:18.899Z,82.96
2023-05-18T21:41:45.613Z,83.19
2023-05-18T21:44:12.170Z,83.36
2023-05-18T21:46:38.787Z,83.53
2023-05-18T21:49:05.903Z,83.65
2023-05-18T21:51:32.686Z,83.76
2023-05-18T21:53:59.862Z,84.03
2023-05-18T21:56:27.274Z,84.36
2023-05-18T21:58:54.623Z,84.57
2023-05-18T22:01:21.699Z,84.44
2023-05-18T22:03:48.400Z,84.37
2023-05-18T22:06:15.186Z,84.76
2023-05-18T22:08:42.222Z,85.25
2023-05-18T22:11:08.786Z,85.80
2023-05-18T22:13:35.429Z,86.12
2023-05-18T22:16:02.064Z,85.61
2023-05-18T22:18:28.754Z,86.06
2023-05-18T22:20:55.431Z,86.41
2023-05-18T22:23:22.220Z,86.67
2023-05-18T22:25:49.023Z,87.20
2023-05-18T22:28:18.169Z,87.30
2023-05-18T22:30:44.849Z,88.16
2023-05-18T22:33:11.563Z,87.27
2023-05-18T22:35:38.126Z,87.14
2023-05-18T22:38:04.754Z,87.62
2023-05-18T22:40:31.498Z,87.95
2023-05-18T22:42:58.473Z,88.20
2023-05-18T22:45:25.086Z,87.98
2023-05-18T22:47:51.727Z,88.19
2023-05-18T22:50:18.274Z,87.91
2023-05-18T22:52:45.901Z,87.98
2023-05-18T22:55:13.879Z,88.58
2023-05-18T22:57:41.336Z,88.92
2023-05-18T23:00:09.256Z,89.08
2023-05-18T23:02:36.081Z,89.63
2023-05-18T23:05:02.964Z,89.81
2023-05-18T23:07:30.637Z,90.40
2023-05-18T23:09:57.363Z,90.42
2023-05-18T23:12:24.021Z,90.45
2023-05-18T23:14:54.388Z,90.79
2023-05-18T23:17:23.112Z,91.29
2023-05-18T23:19:50.325Z,91.96
2023-05-18T23:22:17.129Z,91.52
2023-05-18T23:24:43.757Z,91.26
2023-05-18T23:27:10.791Z,91.60
2023-05-18T23:29:38.036Z,92.10
2023-05-18T23:32:04.829Z,92.61
2023-05-18T23:34:32.151Z,92.93
2023-05-18T23:37:02.812Z,93.06
2023-05-18T23:39:29.845Z,92.47
2023-05-18T23:42:00.656Z,92.82
2023-05-18T23:44:27.572Z,92.84
2023-05-18T23:46:54.279Z,92.70
2023-05-18T23:49:21.178Z,92.96
2023-05-18T23:51:51.439Z,93.09
2023-05-18T23:54:18.390Z,93.74
2023-05-18T23:56:45.600Z,93.69
2023-05-18T23:59:12.824Z,93.47
